Time;durP1;ratioP1;P1;durP2;ratioP2;P2;SDS_P1;SDS_P2;PMS_P1;PMS_P2;Temp;Humidity;BMP_temperature;BMP_pressure;BME280_temperature;BME280_humidity;BME280_pressure;Samples;Min_cycle;Max_cycle;Signal;HPM_P1;HPM_P2
2023/10/19 00:00:49;;;;;;;194.60;183.20;;;16.90;99.90;;;;;;4950182;29;20031;-71
2023/10/19 00:03:16;;;;;;;176.95;166.40;;;17.00;99.90;;;;;;4953852;29;20424;-71
2023/10/19 00:05:44;;;;;;;165.38;155.57;;;16.90;99.90;;;;;;4953610;29;20035;-71
2023/10/19 00:08:19;;;;;;;190.52;179.57;;;16.90;99.90;;;;;;4954352;29;20051;-71
2023/10/19 00:10:48;;;;;;;168.20;157.05;;;17.00;99.90;;;;;;4953211;28;20047;-71
2023/10/19 00:13:14;;;;;;;184.32;173.30;;;17.00;99.90;;;;;;4954006;29;20047;-71
2023/10/19 00:15:47;;;;;;;183.50;172.55;;;17.00;99.90;;;;;;4958639;28;20054;-71
2023/10/19 00:18:23;;;;;;;184.85;173.57;;;17.00;99.90;;;;;;4973125;28;20039;-69
2023/10/19 00:20:59;;;;;;;168.38;157.57;;;16.90;99.90;;;;;;4972451;28;20066;-71
2023/10/19 00:23:31;;;;;;;198.63;186.32;;;16.90;99.90;;;;;;4960031;28;20696;-69
2023/10/19 00:26:08;;;;;;;182.10;170.80;;;16.80;99.90;;;;;;4973015;28;20054;-70
2023/10/19 00:28:38;;;;;;;170.88;160.35;;;17.00;99.90;;;;;;4964826;28;20035;-69
2023/10/19 00:31:08;;;;;;;178.65;167.23;;;17.00;99.90;;;;;;4957756;28;20043;-69
2023/10/19 00:33:38;;;;;;;174.52;163.02;;;17.00;99.90;;;;;;4975261;28;20046;-69
2023/10/19 00:36:09;;;;;;;174.88;164.27;;;16.90;99.90;;;;;;4968230;28;20043;-69
2023/10/19 00:43:42;;;;;;;171.88;161.02;;;16.90;99.90;;;;;;4965798;28;20042;-69
2023/10/19 00:49:01;;;;;;;179.77;168.18;;;16.80;99.90;;;;;;4933910;29;20028;-70
2023/10/19 00:54:16;;;;;;;165.55;154.70;;;16.80;99.90;;;;;;4934433;29;20497;-69
2023/10/19 00:56:48;;;;;;;166.13;155.73;;;16.90;99.90;;;;;;4918219;29;20036;-69
2023/10/19 00:59:24;;;;;;;170.90;160.05;;;16.80;99.90;;;;;;4913656;29;20445;-69
2023/10/19 01:01:54;;;;;;;156.45;146.52;;;16.80;99.90;;;;;;4931961;28;20050;-69
2023/10/19 01:04:23;;;;;;;168.80;158.27;;;16.90;99.90;;;;;;4934563;29;20489;-69
2023/10/19 01:07:04;;;;;;;174.95;164.15;;;16.80;99.90;;;;;;4918292;29;20051;-69
2023/10/19 01:09:36;;;;;;;163.82;153.88;;;16.80;99.90;;;;;;4933095;29;20047;-69
2023/10/19 01:15:16;;;;;;;179.85;168.98;;;16.70;99.90;;;;;;4940295;29;20493;-69
2023/10/19 01:17:51;;;;;;;168.98;158.68;;;16.70;99.90;;;;;;4922321;29;20040;-69
2023/10/19 01:20:23;;;;;;;158.13;147.65;;;16.70;99.90;;;;;;4933145;29;20048;-69
2023/10/19 01:22:53;;;;;;;186.93;175.75;;;16.70;99.90;;;;;;4933573;29;20554;-69
2023/10/19 01:25:33;;;;;;;207.53;194.70;;;16.70;99.90;;;;;;4939675;28;20488;-70
2023/10/19 01:28:06;;;;;;;147.90;138.70;;;16.60;99.90;;;;;;4974792;28;20793;-70
2023/10/19 01:30:33;;;;;;;151.40;142.15;;;16.60;99.90;;;;;;4962682;28;20095;-69
2023/10/19 01:33:00;;;;;;;165.73;155.30;;;16.60;99.90;;;;;;4960763;28;20055;-69
2023/10/19 01:35:27;;;;;;;172.25;161.50;;;16.60;99.90;;;;;;4966858;28;20035;-69
2023/10/19 01:37:53;;;;;;;159.82;149.65;;;16.60;99.90;;;;;;4955809;28;20050;-70
2023/10/19 01:40:22;;;;;;;168.93;158.68;;;16.70;99.90;;;;;;4969831;28;20035;-70
2023/10/19 01:42:48;;;;;;;171.52;161.15;;;16.70;99.90;;;;;;4961094;28;20035;-70
2023/10/19 01:45:14;;;;;;;157.88;147.82;;;16.60;99.90;;;;;;4954440;28;20512;-69
2023/10/19 01:47:42;;;;;;;157.30;147.27;;;16.60;99.90;;;;;;4972390;28;20059;-71
2023/10/19 01:50:19;;;;;;;157.98;147.60;;;16.60;99.90;;;;;;4963762;28;20046;-71
2023/10/19 01:52:45;;;;;;;152.77;142.88;;;16.60;99.90;;;;;;4955524;28;20055;-71
2023/10/19 01:55:12;;;;;;;132.77;124.03;;;16.70;99.90;;;;;;4954801;28;20043;-71
2023/10/19 01:57:39;;;;;;;146.68;137.13;;;16.70;99.90;;;;;;4970501;28;20415;-71
2023/10/19 02:00:11;;;;;;;144.48;135.35;;;16.70;99.90;;;;;;4962349;28;20493;-71
2023/10/19 02:02:37;;;;;;;137.95;128.32;;;16.70;99.90;;;;;;4970086;28;20046;-71
2023/10/19 02:05:05;;;;;;;158.60;148.65;;;16.70;99.90;;;;;;4968082;28;20057;-71
2023/10/19 02:07:32;;;;;;;160.95;150.70;;;16.70;99.90;;;;;;4964111;28;20399;-71
2023/10/19 02:09:58;;;;;;;164.23;153.98;;;16.70;99.90;;;;;;4966369;28;20066;-71
2023/10/19 02:12:24;;;;;;;162.90;153.00;;;16.70;99.90;;;;;;4954509;28;20058;-71
2023/10/19 02:14:51;;;;;;;162.80;152.45;;;16.70;99.90;;;;;;4971603;28;20050;-71
2023/10/19 02:17:18;;;;;;;147.70;138.85;;;16.80;99.90;;;;;;4954713;28;20054;-71
2023/10/19 02:19:44;;;;;;;164.45;154.13;;;16.80;99.90;;;;;;4959855;28;20046;-71
2023/10/19 02:22:12;;;;;;;160.05;150.25;;;16.70;99.90;;;;;;4957295;28;20485;-71
2023/10/19 02:24:38;;;;;;;159.30;149.63;;;16.70;99.90;;;;;;4969988;28;20045;-71
2023/10/19 02:27:05;;;;;;;126.88;118.90;;;16.70;99.90;;;;;;4971393;28;20400;-71
2023/10/19 02:29:31;;;;;;;156.50;146.93;;;16.70;99.90;;;;;;4960422;28;20039;-71
2023/10/19 02:32:03;;;;;;;154.70;145.18;;;16.70;99.90;;;;;;4964779;28;20035;-71
2023/10/19 02:34:30;;;;;;;137.20;128.82;;;16.70;99.90;;;;;;4969530;28;20035;-71
2023/10/19 02:36:56;;;;;;;163.60;153.10;;;16.80;99.90;;;;;;4970248;28;20392;-70
2023/10/19 02:39:28;;;;;;;155.32;146.23;;;16.80;99.90;;;;;;4971398;28;20031;-71
2023/10/19 02:41:54;;;;;;;149.98;141.45;;;16.80;99.90;;;;;;4968093;28;20054;-71
2023/10/19 02:44:25;;;;;;;159.35;150.10;;;16.80;99.90;;;;;;4961494;28;20054;-71
2023/10/19 02:46:53;;;;;;;153.43;144.13;;;16.90;99.90;;;;;;4965707;28;20112;-71
2023/10/19 02:49:21;;;;;;;159.15;150.30;;;16.90;99.90;;;;;;4959598;28;20043;-71
2023/10/19 02:51:47;;;;;;;166.75;157.80;;;17.00;99.90;;;;;;4957488;28;20432;-70
2023/10/19 02:54:24;;;;;;;157.07;148.27;;;17.00;99.90;;;;;;4962676;28;20030;-70
2023/10/19 02:56:56;;;;;;;158.40;149.55;;;17.00;99.90;;;;;;4960416;28;20042;-71
2023/10/19 02:59:23;;;;;;;207.48;196.50;;;17.00;99.90;;;;;;4955183;28;20035;-72
2023/10/19 03:04:37;;;;;;;173.77;164.63;;;17.20;99.90;;;;;;4958437;28;20027;-70
2023/10/19 03:07:04;;;;;;;174.75;164.93;;;17.20;99.90;;;;;;4968497;28;20460;-70
2023/10/19 03:09:31;;;;;;;169.07;159.88;;;17.30;99.90;;;;;;4957313;28;20050;-69
2023/10/19 03:12:32;;;;;;;181.25;171.02;;;17.30;99.90;;;;;;4966650;28;20058;-69
2023/10/19 03:14:50;;;;;;;181.10;171.50;;;17.30;99.90;;;;;;4968259;28;20050;-69
2023/10/19 03:17:16;;;;;;;175.45;165.65;;;17.30;99.90;;;;;;4963746;28;20053;-69
2023/10/19 03:19:42;;;;;;;188.00;177.77;;;17.40;99.90;;;;;;4972456;28;20035;-69
2023/10/19 03:22:09;;;;;;;221.82;210.38;;;17.40;99.90;;;;;;4968265;28;20524;-69
2023/10/19 03:24:35;;;;;;;206.15;195.38;;;17.40;99.90;;;;;;4953802;28;20038;-69
2023/10/19 03:27:22;;;;;;;192.07;181.85;;;17.50;99.90;;;;;;4968818;28;20423;-69
2023/10/19 03:29:54;;;;;;;210.95;199.93;;;17.50;99.90;;;;;;4972351;28;20043;-69
2023/10/19 03:32:26;;;;;;;186.55;176.80;;;17.50;99.90;;;;;;4954820;28;20047;-69
2023/10/19 03:34:55;;;;;;;202.23;191.60;;;17.50;99.90;;;;;;4953745;29;20031;-69
2023/10/19 03:37:30;;;;;;;192.88;182.52;;;17.50;99.90;;;;;;4951999;28;20389;-69
2023/10/19 03:39:56;;;;;;;199.52;188.82;;;17.50;99.90;;;;;;4953391;28;20039;-69
2023/10/19 03:42:26;;;;;;;215.50;204.10;;;17.50;99.90;;;;;;4969125;28;20038;-69
2023/10/19 03:44:57;;;;;;;206.55;195.68;;;17.50;99.90;;;;;;4972845;28;20047;-69
2023/10/19 03:47:28;;;;;;;190.75;180.70;;;17.50;99.90;;;;;;4956872;28;20039;-69
2023/10/19 03:49:54;;;;;;;191.57;181.30;;;17.60;99.90;;;;;;4955310;28;20044;-69
2023/10/19 03:52:20;;;;;;;199.18;188.57;;;17.60;99.90;;;;;;4956905;28;20050;-69
2023/10/19 03:54:47;;;;;;;185.98;176.68;;;17.60;99.90;;;;;;4957173;29;20043;-69
2023/10/19 03:57:22;;;;;;;187.13;177.27;;;17.60;99.90;;;;;;4956442;28;20047;-69
2023/10/19 03:59:57;;;;;;;178.57;169.18;;;17.60;99.90;;;;;;4968402;28;20042;-69
2023/10/19 04:02:29;;;;;;;206.60;195.90;;;17.70;99.90;;;;;;4956442;28;20043;-69
2023/10/19 04:04:57;;;;;;;194.20;184.48;;;17.70;99.90;;;;;;4957014;28;20091;-69
2023/10/19 04:07:25;;;;;;;188.18;178.45;;;17.60;99.90;;;;;;4956688;28;20054;-71
2023/10/19 04:12:36;;;;;;;192.60;182.57;;;17.70;99.90;;;;;;4962485;28;20480;-71
2023/10/19 04:15:21;;;;;;;195.75;185.57;;;17.70;99.90;;;;;;4960775;28;20053;-71
2023/10/19 04:17:48;;;;;;;204.43;193.75;;;17.70;99.90;;;;;;4937158;29;20059;-71
2023/10/19 04:22:46;;;;;;;210.93;200.27;;;17.70;99.90;;;;;;4960303;28;20373;-71
2023/10/19 04:25:12;;;;;;;187.43;177.60;;;17.70;99.90;;;;;;4953975;29;20036;-71
2023/10/19 04:27:41;;;;;;;214.77;203.63;;;17.80;99.90;;;;;;4937545;29;20031;-70
2023/10/19 04:30:21;;;;;;;199.25;188.93;;;17.70;99.90;;;;;;4948828;28;20054;-69
2023/10/19 04:32:48;;;;;;;160.90;152.40;;;17.70;99.90;;;;;;4938091;29;20066;-71
2023/10/19 04:35:21;;;;;;;185.35;175.98;;;17.70;99.90;;;;;;4937940;29;20385;-71
2023/10/19 04:37:51;;;;;;;192.55;182.77;;;17.80;99.90;;;;;;4956066;28;20035;-71
2023/10/19 04:40:18;;;;;;;184.00;174.57;;;17.70;99.90;;;;;;4950589;28;20048;-70
2023/10/19 04:42:48;;;;;;;208.95;198.38;;;17.70;99.90;;;;;;4937452;29;20489;-71
2023/10/19 04:45:14;;;;;;;203.85;193.13;;;17.80;99.90;;;;;;4953067;28;20489;-71
2023/10/19 04:47:40;;;;;;;212.90;202.32;;;17.90;99.90;;;;;;4941424;29;20055;-71
2023/10/19 04:50:07;;;;;;;213.48;202.75;;;17.90;99.90;;;;;;4937376;28;20043;-71
2023/10/19 04:52:33;;;;;;;210.80;200.32;;;17.90;99.90;;;;;;4955765;29;20047;-71
2023/10/19 04:54:59;;;;;;;196.05;186.25;;;18.00;99.90;;;;;;4954324;29;20042;-70
2023/10/19 04:57:25;;;;;;;195.32;185.20;;;18.00;99.90;;;;;;4955371;28;20396;-70
2023/10/19 04:59:52;;;;;;;198.85;188.45;;;18.00;99.90;;;;;;4954954;28;20039;-70
2023/10/19 05:02:18;;;;;;;201.93;191.52;;;18.10;99.90;;;;;;4953985;28;20036;-70
2023/10/19 05:04:45;;;;;;;201.85;191.70;;;18.10;99.90;;;;;;4942369;28;20043;-71
2023/10/19 05:07:17;;;;;;;200.30;190.30;;;18.10;99.90;;;;;;4954551;28;20504;-70
2023/10/19 05:09:43;;;;;;;210.70;199.80;;;18.10;99.90;;;;;;4946322;28;20038;-70
2023/10/19 05:12:11;;;;;;;204.98;194.02;;;18.10;99.90;;;;;;4939591;29;20409;-70
2023/10/19 05:14:37;;;;;;;191.48;181.35;;;18.10;99.90;;;;;;4954633;29;20043;-70
2023/10/19 05:17:04;;;;;;;192.38;182.90;;;18.10;99.90;;;;;;4963737;28;20054;-70
2023/10/19 05:19:33;;;;;;;220.55;209.20;;;18.20;99.90;;;;;;4956726;28;20440;-71
2023/10/19 05:22:00;;;;;;;242.80;230.40;;;18.10;99.90;;;;;;4954945;28;20412;-69
2023/10/19 05:24:27;;;;;;;213.02;202.20;;;18.10;99.90;;;;;;4963863;28;20041;-69
2023/10/19 05:26:54;;;;;;;229.32;217.45;;;18.10;99.90;;;;;;4955594;28;20051;-70
2023/10/19 05:29:25;;;;;;;225.55;214.15;;;18.00;99.90;;;;;;4955148;28;20035;-69
2023/10/19 05:31:57;;;;;;;229.82;218.25;;;18.10;99.90;;;;;;4955200;28;20400;-70
2023/10/19 05:34:24;;;;;;;228.57;216.85;;;18.00;99.90;;;;;;4954810;28;20047;-69
2023/10/19 05:36:51;;;;;;;240.77;228.73;;;18.00;99.90;;;;;;4969383;28;20047;-69
2023/10/19 05:39:17;;;;;;;242.73;230.85;;;18.00;99.90;;;;;;4965539;28;20034;-69
2023/10/19 05:41:43;;;;;;;241.48;229.15;;;17.90;99.90;;;;;;4963004;28;20042;-69
2023/10/19 05:44:10;;;;;;;232.43;220.60;;;17.90;99.90;;;;;;4967283;28;20514;-69
2023/10/19 05:46:36;;;;;;;250.82;237.30;;;17.80;99.90;;;;;;4960790;28;20051;-69
2023/10/19 05:49:03;;;;;;;235.85;223.82;;;17.80;99.90;;;;;;4960752;28;20387;-69
2023/10/19 05:51:30;;;;;;;217.75;206.65;;;17.70;99.90;;;;;;4973147;28;20404;-70
2023/10/19 05:54:01;;;;;;;234.63;222.82;;;17.70;99.90;;;;;;4972300;28;20031;-70
2023/10/19 05:56:28;;;;;;;205.43;194.95;;;17.80;99.90;;;;;;4973102;28;20039;-69
2023/10/19 05:58:55;;;;;;;240.40;227.85;;;17.70;99.90;;;;;;4974086;28;20384;-69
2023/10/19 06:01:22;;;;;;;235.02;222.85;;;17.80;99.90;;;;;;4972742;28;20039;-69
2023/10/19 06:03:48;;;;;;;236.00;224.13;;;17.70;99.90;;;;;;4973221;28;20046;-69
2023/10/19 06:06:14;;;;;;;216.65;205.18;;;17.60;99.90;;;;;;4972282;28;20035;-69
2023/10/19 06:08:40;;;;;;;219.45;207.90;;;17.60;99.90;;;;;;4972477;28;20030;-69
2023/10/19 06:11:06;;;;;;;222.20;211.13;;;17.60;99.90;;;;;;4972807;28;20043;-70
2023/10/19 06:13:33;;;;;;;216.52;204.95;;;17.60;99.90;;;;;;4973126;28;20031;-69
2023/10/19 06:15:59;;;;;;;243.60;231.02;;;17.50;99.90;;;;;;4970943;28;20123;-69
2023/10/19 06:18:25;;;;;;;224.13;212.55;;;17.30;99.90;;;;;;4965534;28;20038;-69
2023/10/19 06:20:54;;;;;;;218.45;207.23;;;17.30;99.90;;;;;;4967838;28;20042;-69
2023/10/19 06:23:20;;;;;;;226.85;215.10;;;17.20;99.90;;;;;;4967963;28;20103;-70
2023/10/19 06:25:46;;;;;;;191.10;180.93;;;17.20;99.90;;;;;;4971567;28;20037;-71
2023/10/19 06:28:13;;;;;;;243.75;231.02;;;17.10;99.90;;;;;;4967176;28;20042;-71
2023/10/19 06:30:42;;;;;;;241.48;228.73;;;17.00;99.90;;;;;;4971686;28;20046;-70
2023/10/19 06:33:08;;;;;;;191.98;182.15;;;17.00;99.90;;;;;;4973199;28;20043;-70
2023/10/19 06:35:37;;;;;;;189.38;179.02;;;17.00;99.90;;;;;;4966464;28;20035;-69
2023/10/19 06:38:08;;;;;;;203.73;193.02;;;16.90;99.90;;;;;;4962095;28;20043;-70
2023/10/19 06:40:36;;;;;;;162.15;153.48;;;16.80;99.90;;;;;;4955545;28;20054;-70
2023/10/19 06:43:02;;;;;;;160.38;151.57;;;16.90;99.90;;;;;;4973056;28;20111;-70
2023/10/19 06:45:32;;;;;;;184.85;174.55;;;16.90;99.90;;;;;;4972663;28;20034;-70
2023/10/19 06:47:59;;;;;;;177.10;167.13;;;16.80;99.90;;;;;;4967005;28;20039;-70
2023/10/19 06:50:26;;;;;;;170.75;159.50;;;16.80;99.90;;;;;;4960456;28;20031;-70
2023/10/19 06:52:54;;;;;;;162.70;153.18;;;16.80;99.90;;;;;;4972610;28;20058;-70
2023/10/19 06:55:20;;;;;;;147.52;138.48;;;16.90;99.90;;;;;;4954706;28;20511;-70
2023/10/19 06:57:53;;;;;;;163.40;153.73;;;17.00;99.90;;;;;;4971343;28;20046;-70
2023/10/19 07:00:21;;;;;;;171.68;161.27;;;17.00;99.90;;;;;;4968409;28;20031;-70
2023/10/19 07:02:50;;;;;;;141.40;133.15;;;17.00;99.90;;;;;;4954107;28;20059;-70
2023/10/19 07:05:29;;;;;;;145.02;136.93;;;17.00;99.90;;;;;;4968885;28;20400;-70
2023/10/19 07:07:56;;;;;;;160.68;151.88;;;17.10;99.90;;;;;;4965488;28;20046;-70
2023/10/19 07:10:23;;;;;;;144.85;136.35;;;17.10;99.90;;;;;;4959834;28;20027;-70
2023/10/19 07:12:51;;;;;;;139.23;130.90;;;17.10;99.90;;;;;;4969086;28;20039;-70
2023/10/19 07:15:22;;;;;;;137.23;129.00;;;17.10;99.90;;;;;;4968715;28;20038;-71
2023/10/19 07:17:49;;;;;;;147.70;139.15;;;17.10;99.90;;;;;;4969215;28;20050;-70
2023/10/19 07:23:18;;;;;;;165.98;156.65;;;17.20;99.90;;;;;;4979267;28;20031;-70
2023/10/19 07:25:48;;;;;;;167.05;158.02;;;17.30;99.90;;;;;;4976242;28;20527;-70
2023/10/19 07:28:15;;;;;;;179.10;169.25;;;17.40;99.90;;;;;;4976608;28;20051;-69
2023/10/19 07:30:42;;;;;;;192.25;180.55;;;17.50;99.90;;;;;;4963849;28;20046;-70
2023/10/19 07:33:16;;;;;;;204.27;192.85;;;17.60;99.90;;;;;;4967283;28;20119;-69
2023/10/19 07:35:43;;;;;;;221.07;208.85;;;17.80;99.90;;;;;;4975848;28;20039;-69
2023/10/19 07:38:10;;;;;;;187.95;177.65;;;17.90;99.90;;;;;;4976718;28;20047;-69
2023/10/19 07:40:36;;;;;;;208.80;197.63;;;18.00;99.90;;;;;;4971773;28;20031;-70
2023/10/19 07:43:03;;;;;;;234.13;221.15;;;18.20;99.90;;;;;;4974481;28;20050;-70
2023/10/19 07:45:31;;;;;;;244.98;232.15;;;18.40;99.90;;;;;;4956567;28;20042;-70
2023/10/19 07:47:57;;;;;;;255.05;241.55;;;18.60;99.90;;;;;;4974428;28;20404;-69
2023/10/19 07:50:24;;;;;;;250.65;237.05;;;18.80;99.90;;;;;;4959824;28;20045;-69
2023/10/19 07:52:51;;;;;;;187.15;176.60;;;18.80;99.90;;;;;;4976603;28;20038;-69
2023/10/19 07:55:18;;;;;;;210.90;199.15;;;18.80;99.90;;;;;;4974537;28;20031;-69
2023/10/19 07:57:44;;;;;;;201.95;191.02;;;18.80;99.90;;;;;;4970416;28;20365;-69
2023/10/19 08:00:13;;;;;;;209.30;197.93;;;18.80;99.90;;;;;;4965668;28;20032;-69
2023/10/19 08:02:41;;;;;;;205.02;193.68;;;18.90;99.90;;;;;;4955792;29;20452;-69
2023/10/19 08:05:08;;;;;;;214.85;202.88;;;18.90;99.90;;;;;;4956965;28;20043;-68
2023/10/19 08:07:36;;;;;;;213.30;200.88;;;19.00;99.90;;;;;;4976098;28;20042;-67
2023/10/19 08:10:05;;;;;;;214.23;202.50;;;19.00;99.90;;;;;;4974445;28;20396;-67
2023/10/19 08:12:32;;;;;;;195.40;184.90;;;19.00;99.90;;;;;;4960284;28;20051;-67
2023/10/19 08:14:59;;;;;;;192.43;181.85;;;19.10;99.90;;;;;;4967175;28;20043;-67
2023/10/19 08:17:25;;;;;;;185.80;176.00;;;19.10;99.90;;;;;;4964493;28;20047;-67
2023/10/19 08:19:51;;;;;;;188.35;177.68;;;19.10;99.90;;;;;;4957524;28;20038;-67
2023/10/19 08:22:17;;;;;;;196.80;186.05;;;19.10;99.90;;;;;;4965230;28;20043;-71
2023/10/19 08:24:45;;;;;;;194.15;183.80;;;19.10;99.90;;;;;;4956191;28;20492;-74
2023/10/19 08:27:12;;;;;;;182.77;172.85;;;19.20;99.90;;;;;;4962709;28;20055;-69
2023/10/19 08:29:39;;;;;;;202.80;191.93;;;19.20;99.90;;;;;;4957946;28;20043;-71
2023/10/19 08:32:06;;;;;;;193.52;183.02;;;19.30;99.90;;;;;;4969660;28;20054;-68
2023/10/19 08:34:39;;;;;;;191.57;180.38;;;19.40;99.90;;;;;;4974802;28;20383;-68
2023/10/19 08:37:05;;;;;;;181.23;170.68;;;19.60;99.90;;;;;;4967093;28;20024;-68
2023/10/19 08:39:38;;;;;;;177.63;167.43;;;19.70;99.90;;;;;;4956165;29;20043;-69
2023/10/19 08:42:04;;;;;;;166.50;156.75;;;19.80;99.90;;;;;;4959660;28;20039;-62
2023/10/19 08:44:31;;;;;;;207.60;196.27;;;19.80;99.90;;;;;;4956479;28;20027;-64
2023/10/19 08:46:59;;;;;;;182.05;172.13;;;19.80;99.90;;;;;;4965044;28;20038;-69
2023/10/19 08:49:26;;;;;;;193.77;183.05;;;19.80;99.90;;;;;;4970398;28;20473;-68
2023/10/19 08:51:53;;;;;;;140.68;132.75;;;19.80;99.90;;;;;;4963226;28;20065;-68
2023/10/19 08:54:20;;;;;;;194.25;183.27;;;19.90;99.90;;;;;;4962434;28;20035;-67
2023/10/19 08:56:47;;;;;;;196.88;186.18;;;20.00;99.90;;;;;;4960547;28;20035;-68
2023/10/19 08:59:15;;;;;;;195.75;185.07;;;20.10;99.90;;;;;;4961734;28;20038;-68
2023/10/19 09:01:44;;;;;;;178.18;168.32;;;20.20;99.90;;;;;;4969425;28;20050;-68
2023/10/19 09:04:11;;;;;;;169.73;160.07;;;20.30;99.90;;;;;;4975453;28;20043;-68
2023/10/19 09:06:44;;;;;;;168.23;158.82;;;20.40;99.90;;;;;;4973451;28;20034;-68
2023/10/19 09:09:16;;;;;;;212.75;201.00;;;20.50;99.90;;;;;;4963952;28;20062;-68
2023/10/19 09:11:43;;;;;;;211.55;200.20;;;20.60;99.90;;;;;;4965697;28;20055;-68
2023/10/19 09:14:12;;;;;;;196.63;185.93;;;20.60;99.90;;;;;;4955759;28;20378;-68
2023/10/19 09:17:00;;;;;;;203.90;192.40;;;20.60;99.90;;;;;;4957144;28;20044;-69
2023/10/19 09:19:47;;;;;;;208.52;197.02;;;20.70;99.90;;;;;;4972221;28;20047;-68
2023/10/19 09:22:18;;;;;;;203.40;192.27;;;20.60;99.90;;;;;;4974775;28;20051;-68
2023/10/19 09:24:45;;;;;;;;;;;20.60;99.90;;;;;;4974592;28;20033;-68
2023/10/19 09:27:12;;;;;;;205.20;193.82;;;20.60;99.90;;;;;;4971853;28;19914;-68
2023/10/19 09:29:40;;;;;;;233.82;221.20;;;20.50;99.90;;;;;;4970104;28;20030;-68
2023/10/19 09:32:07;;;;;;;258.02;244.02;;;20.40;99.90;;;;;;4973811;28;20062;-68
2023/10/19 09:34:33;;;;;;;248.45;234.65;;;20.30;99.90;;;;;;4974572;28;20023;-68
2023/10/19 09:37:03;;;;;;;226.15;213.77;;;20.30;99.90;;;;;;4971854;28;20041;-68
2023/10/19 09:39:35;;;;;;;285.52;269.60;;;20.20;99.90;;;;;;4967918;28;20441;-68
2023/10/19 09:42:11;;;;;;;293.33;277.17;;;20.20;99.90;;;;;;4973878;28;20054;-69
2023/10/19 09:45:05;;;;;;;260.80;246.50;;;20.20;99.90;;;;;;4971746;28;20054;-68
2023/10/19 09:47:35;;;;;;;302.52;285.13;;;20.20;99.90;;;;;;4947955;29;20054;-68
2023/10/19 09:50:02;;;;;;;265.25;250.48;;;20.30;99.90;;;;;;4935696;29;20054;-68
2023/10/19 09:52:31;;;;;;;347.42;327.50;;;20.30;99.90;;;;;;4935349;28;20059;-69
2023/10/19 09:55:00;;;;;;;352.92;332.50;;;20.30;99.90;;;;;;4918882;29;20382;-69
2023/10/19 09:57:36;;;;;;;331.42;311.98;;;20.30;99.90;;;;;;4926281;29;20036;-69
2023/10/19 10:00:09;;;;;;;327.27;307.95;;;20.30;99.90;;;;;;4942800;28;20031;-68
2023/10/19 10:02:35;;;;;;;305.52;287.85;;;20.20;99.90;;;;;;4972615;28;20053;-69
2023/10/19 10:05:04;;;;;;;303.60;285.88;;;20.20;99.90;;;;;;4957935;28;20047;-70
2023/10/19 10:07:30;;;;;;;294.00;277.27;;;20.20;99.90;;;;;;4973080;28;20061;-69
2023/10/19 10:09:56;;;;;;;263.08;248.30;;;20.30;99.90;;;;;;4964858;28;20038;-69
2023/10/19 10:12:23;;;;;;;238.88;225.48;;;20.40;99.90;;;;;;4972415;28;20061;-69
2023/10/19 10:15:07;;;;;;;229.80;217.05;;;20.40;99.90;;;;;;4974240;28;20507;-69
2023/10/19 10:17:42;;;;;;;262.73;248.25;;;20.50;99.90;;;;;;4943911;28;20051;-69
2023/10/19 10:20:14;;;;;;;242.90;229.10;;;20.50;99.90;;;;;;4948174;29;20035;-69
2023/10/19 10:22:41;;;;;;;235.95;222.93;;;20.60;99.90;;;;;;4954562;29;20046;-70
2023/10/19 10:25:07;;;;;;;264.52;249.32;;;20.60;99.90;;;;;;4954333;28;20050;-69
2023/10/19 10:27:52;;;;;;;227.55;215.20;;;20.70;99.90;;;;;;4933901;28;20038;-69
2023/10/19 10:30:19;;;;;;;245.80;232.00;;;20.70;99.90;;;;;;4949055;28;20489;-69
2023/10/19 10:32:54;;;;;;;259.73;245.65;;;20.80;99.90;;;;;;4971985;28;20043;-70
2023/10/19 10:35:41;;;;;;;272.63;257.20;;;20.90;99.90;;;;;;4970319;28;20507;-71
2023/10/19 10:38:13;;;;;;;271.65;256.42;;;21.00;99.90;;;;;;4964843;28;20484;-71
2023/10/19 10:40:47;;;;;;;273.95;258.77;;;21.00;99.90;;;;;;4967929;28;20041;-71
2023/10/19 10:43:13;;;;;;;281.80;266.20;;;21.10;99.90;;;;;;4965617;28;20497;-71
2023/10/19 10:45:39;;;;;;;274.77;259.48;;;21.10;99.90;;;;;;4956569;28;20066;-65
2023/10/19 10:48:12;;;;;;;289.50;273.67;;;21.00;99.90;;;;;;4968810;28;20023;-65
2023/10/19 10:50:39;;;;;;;265.40;251.25;;;21.00;99.90;;;;;;4958345;28;20034;-65
2023/10/19 10:53:05;;;;;;;275.27;259.50;;;21.00;99.90;;;;;;4973159;28;20484;-65
2023/10/19 10:55:32;;;;;;;286.95;271.40;;;21.00;99.90;;;;;;4957089;28;20035;-65
2023/10/19 10:57:58;;;;;;;287.25;271.05;;;21.10;99.90;;;;;;4952471;28;20047;-64
2023/10/19 11:00:26;;;;;;;318.65;300.63;;;21.20;99.90;;;;;;4962235;28;20035;-65
2023/10/19 11:03:01;;;;;;;305.35;288.42;;;21.40;99.90;;;;;;4972629;28;20422;-65
2023/10/19 11:05:27;;;;;;;320.45;302.45;;;21.40;99.90;;;;;;4970590;28;20027;-65
2023/10/19 11:08:03;;;;;;;308.73;291.58;;;21.40;99.90;;;;;;4952708;29;20031;-65
2023/10/19 11:10:30;;;;;;;310.70;293.15;;;21.50;99.90;;;;;;4960861;28;20046;-64
2023/10/19 11:13:06;;;;;;;318.98;301.25;;;21.50;99.90;;;;;;4972781;28;20035;-65
2023/10/19 11:15:33;;;;;;;328.23;310.27;;;21.50;99.90;;;;;;4971899;28;20051;-65
2023/10/19 11:17:59;;;;;;;337.27;318.20;;;21.60;99.90;;;;;;4959523;28;20023;-65
2023/10/19 11:20:27;;;;;;;309.65;292.67;;;21.70;99.90;;;;;;4967891;28;20034;-65
2023/10/19 11:22:55;;;;;;;356.80;336.70;;;21.70;99.90;;;;;;4953534;29;20030;-65
2023/10/19 11:25:29;;;;;;;351.02;331.27;;;21.80;99.90;;;;;;4954512;28;20070;-67
2023/10/19 11:27:58;;;;;;;365.65;345.35;;;21.80;99.90;;;;;;4972789;28;20050;-66
2023/10/19 11:30:29;;;;;;;359.92;339.92;;;21.70;99.90;;;;;;4970885;28;20502;-66
2023/10/19 11:32:57;;;;;;;348.90;329.33;;;21.60;99.90;;;;;;4971062;28;20062;-66
2023/10/19 11:35:24;;;;;;;348.65;329.15;;;21.40;99.90;;;;;;4972240;28;20031;-66
2023/10/19 11:37:52;;;;;;;324.67;307.27;;;21.30;99.90;;;;;;4972710;28;20043;-66
2023/10/19 11:40:20;;;;;;;316.35;299.05;;;21.30;99.90;;;;;;4958932;28;20046;-66
2023/10/19 11:42:46;;;;;;;314.77;297.65;;;21.30;99.90;;;;;;4962019;28;20040;-66
2023/10/19 11:45:13;;;;;;;313.70;296.60;;;21.20;99.90;;;;;;4970457;28;20481;-66
2023/10/19 11:47:39;;;;;;;306.40;289.83;;;21.20;99.90;;;;;;4972723;28;20491;-65
2023/10/19 11:50:05;;;;;;;294.27;278.20;;;21.20;99.90;;;;;;4964018;28;20023;-66
2023/10/19 11:52:32;;;;;;;282.77;267.85;;;21.20;99.90;;;;;;4954860;28;20046;-66
2023/10/19 11:54:58;;;;;;;277.40;262.75;;;21.10;99.90;;;;;;4971872;28;20050;-66
2023/10/19 11:57:25;;;;;;;279.80;264.42;;;21.10;99.90;;;;;;4969826;28;20038;-66
2023/10/19 11:59:54;;;;;;;270.63;256.23;;;21.10;99.90;;;;;;4963281;28;20072;-65
2023/10/19 12:02:20;;;;;;;294.13;278.63;;;21.10;99.90;;;;;;4970600;28;20050;-66
2023/10/19 12:04:47;;;;;;;306.77;290.17;;;21.20;99.90;;;;;;4953776;28;20032;-66
2023/10/19 12:07:13;;;;;;;281.20;266.27;;;21.20;99.90;;;;;;4969555;28;20031;-66
2023/10/19 12:09:42;;;;;;;302.48;286.05;;;21.20;99.90;;;;;;4975056;28;20396;-66
2023/10/19 12:12:08;;;;;;;278.38;263.15;;;21.30;99.90;;;;;;4960118;28;20039;-66
2023/10/19 12:14:38;;;;;;;286.05;270.90;;;21.30;99.90;;;;;;4969142;28;20031;-66
2023/10/19 12:17:07;;;;;;;280.45;265.48;;;21.30;99.90;;;;;;4961125;28;20047;-66
2023/10/19 12:19:33;;;;;;;275.33;260.63;;;21.30;99.90;;;;;;4956870;28;20385;-66
2023/10/19 12:22:00;;;;;;;258.05;244.27;;;21.30;99.90;;;;;;4970104;28;20035;-66
2023/10/19 12:24:29;;;;;;;274.63;260.08;;;21.30;99.90;;;;;;4966847;28;20047;-67
2023/10/19 12:26:55;;;;;;;255.55;242.20;;;21.30;99.90;;;;;;4970046;28;20656;-66
2023/10/19 12:29:21;;;;;;;248.18;235.07;;;21.30;99.90;;;;;;4969506;28;20043;-70
2023/10/19 12:31:47;;;;;;;260.70;246.80;;;21.30;99.90;;;;;;4955334;28;20039;-69
2023/10/19 12:34:14;;;;;;;278.80;263.80;;;21.30;99.90;;;;;;4957088;28;20038;-70
2023/10/19 12:36:41;;;;;;;273.52;258.65;;;21.30;99.90;;;;;;4967860;28;20045;-69
2023/10/19 12:39:07;;;;;;;271.83;257.17;;;21.40;99.90;;;;;;4974268;28;20043;-70
2023/10/19 12:41:34;;;;;;;276.13;261.25;;;21.30;99.90;;;;;;4963852;28;20035;-70